createdAt,value
2023-01-16T00:01:08.413Z,3.81
2023-01-16T00:03:36.155Z,3.75
2023-01-16T00:06:04.088Z,3.73
2023-01-16T00:08:32.020Z,3.71
2023-01-16T00:11:00.188Z,3.71
2023-01-16T00:13:27.993Z,3.72
2023-01-16T00:15:55.783Z,3.74
2023-01-16T00:18:23.480Z,3.75
2023-01-16T00:20:51.213Z,3.73
2023-01-16T00:23:18.851Z,3.71
2023-01-16T00:25:46.650Z,3.70
2023-01-16T00:28:14.690Z,3.70
2023-01-16T00:30:43.076Z,3.68
2023-01-16T00:33:10.782Z,3.67
2023-01-16T00:35:39.415Z,3.63
2023-01-16T00:38:07.299Z,3.60
2023-01-16T00:40:35.004Z,3.56
2023-01-16T00:43:02.877Z,3.52
2023-01-16T00:45:30.698Z,3.49
2023-01-16T00:47:59.014Z,3.48
2023-01-16T00:50:26.941Z,3.47
2023-01-16T00:52:55.728Z,3.43
2023-01-16T00:55:23.839Z,3.40
2023-01-16T00:57:51.595Z,3.40
2023-01-16T01:00:21.788Z,3.41
2023-01-16T01:02:49.977Z,3.41
2023-01-16T01:05:18.831Z,3.37
2023-01-16T01:07:46.912Z,3.34
2023-01-16T01:10:14.633Z,3.33
2023-01-16T01:12:42.356Z,3.33
2023-01-16T01:15:10.124Z,3.32
2023-01-16T01:17:37.991Z,3.31
2023-01-16T01:20:07.080Z,3.31
2023-01-16T01:22:34.767Z,3.30
2023-01-16T01:25:02.527Z,3.27
2023-01-16T01:27:30.180Z,3.21
2023-01-16T01:29:57.848Z,3.14
2023-01-16T01:32:25.488Z,3.10
2023-01-16T01:34:53.162Z,3.09
2023-01-16T01:37:20.739Z,3.06
2023-01-16T01:39:48.451Z,3.04
2023-01-16T01:42:35.115Z,3.06
2023-01-16T01:45:23.297Z,3.03
2023-01-16T01:48:13.922Z,3.02
2023-01-16T01:51:06.459Z,2.97
2023-01-16T01:53:44.308Z,2.92
2023-01-16T01:56:34.157Z,2.85
2023-01-16T01:59:11.382Z,2.84
2023-01-16T02:01:39.862Z,2.85
2023-01-16T02:04:15.872Z,2.88
2023-01-16T02:06:51.887Z,2.90
2023-01-16T02:09:21.933Z,2.92
2023-01-16T02:12:00.675Z,2.93
2023-01-16T02:14:32.532Z,2.94
2023-01-16T02:17:38.548Z,2.96
2023-01-16T02:20:24.181Z,2.97
2023-01-16T02:23:30.683Z,2.99
2023-01-16T02:27:07.889Z,2.99
2023-01-16T02:30:12.198Z,2.97
2023-01-16T02:33:18.444Z,2.95
2023-01-16T02:35:54.923Z,2.93
2023-01-16T02:38:52.612Z,2.91
2023-01-16T02:41:51.631Z,2.92
2023-01-16T02:44:43.322Z,2.93
2023-01-16T02:47:22.723Z,2.92
2023-01-16T02:49:54.240Z,2.91
2023-01-16T02:52:44.093Z,2.90
2023-01-16T02:55:13.822Z,2.89
2023-01-16T02:57:50.305Z,2.89
2023-01-16T03:00:19.820Z,2.88
2023-01-16T03:02:47.815Z,2.87
2023-01-16T03:05:16.039Z,2.85
2023-01-16T03:08:03.892Z,2.85
2023-01-16T03:11:05.254Z,2.79
2023-01-16T03:14:20.677Z,2.73
2023-01-16T03:16:54.577Z,2.69
2023-01-16T03:20:11.401Z,2.70
2023-01-16T03:22:52.290Z,2.68
2023-01-16T03:25:41.713Z,2.66
2023-01-16T03:28:29.697Z,2.66
2023-01-16T03:31:26.544Z,2.65
2023-01-16T03:34:42.071Z,2.65
2023-01-16T03:37:25.823Z,2.64
2023-01-16T03:40:04.029Z,2.65
2023-01-16T03:42:42.808Z,2.68
2023-01-16T03:45:21.757Z,2.69
2023-01-16T03:48:23.036Z,2.71
2023-01-16T03:50:59.916Z,2.72
2023-01-16T03:53:36.937Z,2.75
2023-01-16T03:56:22.916Z,2.79
2023-01-16T03:58:55.008Z,2.79
2023-01-16T04:02:21.281Z,2.78
2023-01-16T04:05:28.066Z,2.72
2023-01-16T04:08:15.393Z,2.67
2023-01-16T04:10:46.840Z,2.64
2023-01-16T04:13:23.300Z,2.65
2023-01-16T04:15:56.436Z,2.63
2023-01-16T04:18:34.828Z,2.61
2023-01-16T04:21:07.897Z,2.60
2023-01-16T04:23:36.757Z,2.60
2023-01-16T04:26:04.773Z,2.60
2023-01-16T04:28:32.444Z,2.62
2023-01-16T04:31:00.200Z,2.61
2023-01-16T04:33:27.932Z,2.59
2023-01-16T04:35:55.633Z,2.56
2023-01-16T04:38:25.276Z,2.52
2023-01-16T04:40:55.735Z,2.51
2023-01-16T04:43:23.525Z,2.49
2023-01-16T04:45:51.213Z,2.47
2023-01-16T04:48:18.964Z,2.45
2023-01-16T04:50:49.859Z,2.43
2023-01-16T04:53:17.480Z,2.43
2023-01-16T04:55:45.242Z,2.43
2023-01-16T04:58:12.922Z,2.38
2023-01-16T05:00:40.642Z,2.31
2023-01-16T05:03:08.390Z,2.24
2023-01-16T05:05:39.253Z,2.16
2023-01-16T05:08:19.474Z,2.08
2023-01-16T05:10:47.100Z,2.02
2023-01-16T05:13:14.842Z,1.98
2023-01-16T05:15:44.853Z,1.96
2023-01-16T05:18:13.889Z,1.94
2023-01-16T05:20:41.552Z,1.93
2023-01-16T05:23:11.174Z,1.92
2023-01-16T05:25:39.507Z,1.92
2023-01-16T05:28:07.500Z,1.93
2023-01-16T05:30:36.358Z,1.91
2023-01-16T05:33:05.199Z,1.90
2023-01-16T05:35:33.257Z,1.89
2023-01-16T05:38:00.935Z,1.88
2023-01-16T05:40:28.651Z,1.88
2023-01-16T05:42:56.446Z,1.88
2023-01-16T05:45:24.150Z,1.87
2023-01-16T05:47:52.083Z,1.86
2023-01-16T05:50:19.850Z,1.85
2023-01-16T05:52:50.545Z,1.83
2023-01-16T05:55:18.350Z,1.80
2023-01-16T05:57:46.118Z,1.77
2023-01-16T06:00:15.327Z,1.74
2023-01-16T06:02:43.539Z,1.73
2023-01-16T06:05:11.404Z,1.74
2023-01-16T06:07:39.394Z,1.76
2023-01-16T06:10:08.052Z,1.75
2023-01-16T06:12:35.811Z,1.75
2023-01-16T06:15:04.463Z,1.71
2023-01-16T06:17:32.163Z,1.63
2023-01-16T06:19:59.889Z,1.52
2023-01-16T06:22:27.549Z,1.42
2023-01-16T06:24:55.211Z,1.31
2023-01-16T06:27:23.178Z,1.23
2023-01-16T06:29:50.979Z,1.17
2023-01-16T06:32:19.924Z,1.13
2023-01-16T06:34:47.634Z,1.08
2023-01-16T06:37:15.348Z,1.03
2023-01-16T06:39:43.065Z,1.01
2023-01-16T06:42:10.926Z,0.98
2023-01-16T06:44:38.677Z,0.97
2023-01-16T06:47:07.228Z,0.97
2023-01-16T06:49:35.021Z,0.95
2023-01-16T06:52:05.387Z,0.92
2023-01-16T06:54:33.186Z,0.89
2023-01-16T06:57:00.928Z,0.87
2023-01-16T06:59:28.690Z,0.86
2023-01-16T07:01:56.445Z,0.85
2023-01-16T07:04:25.507Z,0.84
2023-01-16T07:06:53.314Z,0.82
2023-01-16T07:09:28.824Z,0.79
2023-01-16T07:11:56.644Z,0.77
2023-01-16T07:14:43.052Z,0.77
2023-01-16T07:17:31.013Z,0.79
2023-01-16T07:20:17.551Z,0.82
2023-01-16T07:22:46.152Z,0.85
2023-01-16T07:25:26.871Z,0.90
2023-01-16T07:27:54.714Z,0.95
2023-01-16T07:30:22.974Z,1.01
2023-01-16T07:32:51.055Z,1.05
2023-01-16T07:35:18.981Z,1.10
2023-01-16T07:37:47.001Z,1.14
2023-01-16T07:40:14.889Z,1.20
2023-01-16T07:42:42.688Z,1.25
2023-01-16T07:45:12.093Z,1.30
2023-01-16T07:47:39.971Z,1.37
2023-01-16T07:50:09.777Z,1.45
2023-01-16T07:52:37.623Z,1.50
2023-01-16T07:55:06.921Z,1.54
2023-01-16T07:57:37.845Z,1.60
2023-01-16T08:00:10.626Z,1.65
2023-01-16T08:02:42.433Z,1.67
2023-01-16T08:05:11.296Z,1.70
2023-01-16T08:07:39.199Z,1.73
2023-01-16T08:10:07.553Z,1.78
2023-01-16T08:12:38.687Z,1.85
2023-01-16T08:15:07.642Z,1.92
2023-01-16T08:17:40.881Z,1.97
2023-01-16T08:20:10.454Z,2.03
2023-01-16T08:22:50.657Z,2.09
2023-01-16T08:25:24.669Z,2.14
2023-01-16T08:27:52.752Z,2.20
2023-01-16T08:30:20.707Z,2.26
2023-01-16T08:32:48.538Z,2.32
2023-01-16T08:35:16.472Z,2.37
2023-01-16T08:37:50.476Z,2.41
2023-01-16T08:40:20.030Z,2.47
2023-01-16T08:43:06.705Z,2.53
2023-01-16T08:45:55.037Z,2.60
2023-01-16T08:48:45.050Z,2.64
2023-01-16T08:51:24.777Z,2.68
2023-01-16T08:53:55.481Z,2.73
2023-01-16T08:56:23.690Z,2.78
2023-01-16T08:58:51.495Z,2.81
2023-01-16T09:01:19.760Z,2.84
2023-01-16T09:03:47.523Z,2.86
2023-01-16T09:06:15.319Z,2.89
2023-01-16T09:08:43.107Z,2.91
2023-01-16T09:11:29.747Z,2.93
2023-01-16T09:14:00.718Z,2.95
2023-01-16T09:16:28.537Z,2.99
2023-01-16T09:18:56.454Z,3.07
2023-01-16T09:21:25.025Z,3.15
2023-01-16T09:23:53.017Z,3.23
2023-01-16T09:26:20.854Z,3.33
2023-01-16T09:28:48.728Z,3.48
2023-01-16T09:31:16.841Z,3.60
2023-01-16T09:33:45.184Z,3.72
2023-01-16T09:36:13.679Z,3.80
2023-01-16T09:38:41.674Z,3.91
2023-01-16T09:41:35.421Z,4.06
2023-01-16T09:44:08.138Z,4.20
2023-01-16T09:46:43.074Z,4.35
2023-01-16T09:49:28.713Z,4.51
2023-01-16T09:52:29.891Z,4.67
2023-01-16T09:55:23.787Z,4.85
2023-01-16T09:58:12.479Z,5.01
2023-01-16T10:00:40.256Z,5.09
2023-01-16T10:03:09.337Z,5.19
2023-01-16T10:05:57.709Z,5.31
2023-01-16T10:08:45.384Z,5.35
2023-01-16T10:11:33.272Z,5.39
2023-01-16T10:14:13.013Z,5.48
2023-01-16T10:16:50.477Z,5.62
2023-01-16T10:19:41.290Z,5.78
2023-01-16T10:22:54.309Z,5.88
2023-01-16T10:25:47.496Z,5.95
2023-01-16T10:28:44.249Z,6.05
2023-01-16T10:31:47.557Z,6.15
2023-01-16T10:34:23.464Z,6.27
2023-01-16T10:36:58.514Z,6.40
2023-01-16T10:39:38.210Z,6.49
2023-01-16T10:42:24.718Z,6.59
2023-01-16T10:45:38.534Z,6.71
2023-01-16T10:48:33.133Z,6.88
2023-01-16T10:51:02.226Z,7.13
2023-01-16T10:53:32.827Z,7.29
2023-01-16T10:56:01.577Z,7.39
2023-01-16T10:58:33.361Z,7.56
2023-01-16T11:01:20.728Z,7.78
2023-01-16T11:03:52.044Z,8.16
2023-01-16T11:06:27.411Z,8.74
2023-01-16T11:09:16.892Z,9.59
2023-01-16T11:12:05.220Z,10.48
2023-01-16T11:15:00.677Z,11.02
2023-01-16T11:17:54.967Z,11.39
2023-01-16T11:20:34.707Z,11.58
2023-01-16T11:23:22.247Z,11.41
2023-01-16T11:25:53.943Z,10.74
2023-01-16T11:28:28.817Z,10.13
2023-01-16T11:31:08.077Z,9.77
2023-01-16T11:33:44.994Z,9.62
2023-01-16T11:36:17.360Z,9.45
2023-01-16T11:38:48.172Z,9.33
2023-01-16T11:41:27.218Z,9.16
2023-01-16T11:44:40.711Z,8.97
2023-01-16T11:47:27.642Z,8.45
2023-01-16T11:49:56.333Z,7.89
2023-01-16T11:52:30.395Z,7.50
2023-01-16T11:55:05.314Z,7.15
2023-01-16T11:57:51.099Z,6.80
2023-01-16T12:00:57.961Z,6.51
2023-01-16T12:03:50.319Z,6.24
2023-01-16T12:06:34.615Z,6.03
2023-01-16T12:09:36.474Z,5.85
2023-01-16T12:12:28.349Z,5.82
2023-01-16T12:15:03.787Z,5.80
2023-01-16T12:18:18.974Z,5.79
2023-01-16T12:21:04.283Z,5.78
2023-01-16T12:24:05.821Z,5.76
2023-01-16T12:26:46.409Z,5.76
2023-01-16T12:29:38.820Z,5.77
2023-01-16T12:32:17.740Z,5.79
2023-01-16T12:35:27.233Z,5.73
2023-01-16T12:38:21.095Z,5.72
2023-01-16T12:41:56.706Z,5.71
2023-01-16T12:44:47.304Z,5.65
2023-01-16T12:47:31.189Z,5.67
2023-01-16T12:50:40.924Z,5.70
2023-01-16T12:53:15.839Z,5.71
2023-01-16T12:56:14.426Z,5.71
2023-01-16T12:58:50.124Z,5.66
2023-01-16T13:01:25.903Z,5.61
2023-01-16T13:04:02.935Z,5.57
2023-01-16T13:07:06.956Z,5.56
2023-01-16T13:10:20.760Z,5.54
2023-01-16T13:13:08.825Z,5.54
2023-01-16T13:15:42.091Z,5.56
2023-01-16T13:18:34.367Z,5.57
2023-01-16T13:21:08.159Z,5.60
2023-01-16T13:23:47.736Z,5.61
2023-01-16T13:26:18.944Z,5.58
2023-01-16T13:29:01.755Z,5.55
2023-01-16T13:31:57.601Z,5.51
2023-01-16T13:34:46.644Z,5.52
2023-01-16T13:37:53.927Z,5.53
2023-01-16T13:40:52.444Z,5.56
2023-01-16T13:44:10.282Z,5.60
2023-01-16T13:46:38.871Z,5.61
2023-01-16T13:49:09.859Z,5.62
2023-01-16T13:51:45.062Z,5.63
2023-01-16T13:54:22.294Z,5.61
2023-01-16T13:57:23.944Z,5.59
2023-01-16T13:59:58.411Z,5.56
2023-01-16T14:02:38.749Z,5.54
2023-01-16T14:05:50.767Z,5.52
2023-01-16T14:09:06.602Z,5.49
2023-01-16T14:11:58.224Z,5.48
2023-01-16T14:15:07.829Z,5.48
2023-01-16T14:17:54.186Z,5.45
2023-01-16T14:20:48.325Z,5.41
2023-01-16T14:23:41.615Z,5.37
2023-01-16T14:26:20.951Z,5.33
2023-01-16T14:28:55.871Z,5.29
2023-01-16T14:31:33.945Z,5.26
2023-01-16T14:34:02.343Z,5.24
2023-01-16T14:36:34.876Z,5.24
2023-01-16T14:39:03.010Z,5.23
2023-01-16T14:41:51.583Z,5.22
2023-01-16T14:44:40.349Z,5.20
2023-01-16T14:48:05.234Z,5.19
2023-01-16T14:51:14.000Z,5.15
2023-01-16T14:54:15.790Z,5.13
2023-01-16T14:56:48.252Z,5.10
2023-01-16T14:59:40.772Z,5.05
2023-01-16T15:02:38.523Z,4.97
2023-01-16T15:05:52.074Z,4.85
2023-01-16T15:08:35.975Z,4.73
2023-01-16T15:11:34.126Z,4.66
2023-01-16T15:14:26.297Z,4.61
2023-01-16T15:17:16.898Z,4.59
2023-01-16T15:20:31.130Z,4.58
2023-01-16T15:23:01.339Z,4.55
2023-01-16T15:26:07.378Z,4.53
2023-01-16T15:28:44.286Z,4.47
2023-01-16T15:31:19.114Z,4.44
2023-01-16T15:34:11.429Z,4.38
2023-01-16T15:36:51.014Z,4.33
2023-01-16T15:39:40.862Z,4.30
2023-01-16T15:42:38.910Z,4.26
2023-01-16T15:45:44.586Z,4.20
2023-01-16T15:48:24.356Z,4.13
2023-01-16T15:51:02.065Z,4.09
2023-01-16T15:53:43.870Z,4.06
2023-01-16T15:56:56.020Z,4.02
2023-01-16T15:59:25.678Z,3.95
2023-01-16T16:01:54.173Z,3.85
2023-01-16T16:04:23.796Z,3.80
2023-01-16T16:06:53.028Z,3.77
2023-01-16T16:09:26.406Z,3.75
2023-01-16T16:11:56.393Z,3.73
2023-01-16T16:14:53.781Z,3.72
2023-01-16T16:17:48.471Z,3.69
2023-01-16T16:20:42.295Z,3.64
2023-01-16T16:23:13.293Z,3.59
2023-01-16T16:25:59.473Z,3.55
2023-01-16T16:28:33.477Z,3.53
2023-01-16T16:31:12.455Z,3.52
2023-01-16T16:33:56.288Z,3.50
2023-01-16T16:36:25.004Z,3.46
2023-01-16T16:38:56.914Z,3.43
2023-01-16T16:41:24.644Z,3.40
2023-01-16T16:43:59.428Z,3.38
2023-01-16T16:46:31.449Z,3.36
2023-01-16T16:49:23.130Z,3.31
2023-01-16T16:51:51.472Z,3.25
2023-01-16T16:54:28.201Z,3.21
2023-01-16T16:56:59.005Z,3.16
2023-01-16T16:59:33.258Z,3.12
2023-01-16T17:02:04.164Z,3.12
2023-01-16T17:04:31.910Z,3.11
2023-01-16T17:06:59.851Z,3.12
2023-01-16T17:09:31.791Z,3.14
2023-01-16T17:12:14.495Z,3.15
2023-01-16T17:14:44.988Z,3.14
2023-01-16T17:17:19.179Z,3.13
2023-01-16T17:19:47.425Z,3.14
2023-01-16T17:22:15.351Z,3.15
2023-01-16T17:24:43.104Z,3.14
2023-01-16T17:27:11.577Z,3.12
2023-01-16T17:29:45.651Z,3.13
2023-01-16T17:32:30.828Z,3.12
2023-01-16T17:34:59.446Z,3.10
2023-01-16T17:37:27.292Z,3.09
2023-01-16T17:39:55.071Z,3.09
2023-01-16T17:42:41.270Z,3.10
2023-01-16T17:45:52.864Z,3.09
2023-01-16T17:48:25.856Z,3.04
2023-01-16T17:50:55.796Z,3.04
2023-01-16T17:53:26.113Z,3.03
2023-01-16T17:55:57.652Z,3.01
2023-01-16T17:58:47.937Z,2.97
2023-01-16T18:01:18.983Z,2.93
2023-01-16T18:04:10.785Z,2.90
2023-01-16T18:06:41.166Z,2.89
2023-01-16T18:09:12.466Z,2.90
2023-01-16T18:12:02.011Z,2.89
2023-01-16T18:14:48.149Z,2.86
2023-01-16T18:17:26.786Z,2.83
2023-01-16T18:20:02.396Z,2.82
2023-01-16T18:22:36.521Z,2.81
2023-01-16T18:25:08.031Z,2.81
2023-01-16T18:27:36.141Z,2.79
2023-01-16T18:30:05.017Z,2.77
2023-01-16T18:32:33.707Z,2.74
2023-01-16T18:35:07.722Z,2.70
2023-01-16T18:38:02.713Z,2.66
2023-01-16T18:40:49.433Z,2.62
2023-01-16T18:43:36.645Z,2.58
2023-01-16T18:46:23.258Z,2.52
2023-01-16T18:49:20.478Z,2.46
2023-01-16T18:52:06.964Z,2.41
2023-01-16T18:54:53.104Z,2.37
2023-01-16T18:57:43.752Z,2.33
2023-01-16T19:00:41.494Z,2.31
2023-01-16T19:03:25.139Z,2.29
2023-01-16T19:05:55.303Z,2.30
2023-01-16T19:08:24.730Z,2.29
2023-01-16T19:10:54.828Z,2.29
2023-01-16T19:13:37.339Z,2.35
2023-01-16T19:16:24.900Z,2.38
2023-01-16T19:19:04.547Z,2.37
2023-01-16T19:21:33.801Z,2.33
2023-01-16T19:24:03.227Z,2.32
2023-01-16T19:26:30.872Z,2.30
2023-01-16T19:28:58.459Z,2.26
2023-01-16T19:31:27.772Z,2.24
2023-01-16T19:33:56.458Z,2.21
2023-01-16T19:36:24.197Z,2.20
2023-01-16T19:38:53.215Z,2.17
2023-01-16T19:41:41.171Z,2.18
2023-01-16T19:44:29.052Z,2.18
2023-01-16T19:46:57.488Z,2.16
2023-01-16T19:49:25.742Z,2.19
2023-01-16T19:51:56.357Z,2.22
2023-01-16T19:54:28.140Z,2.24
2023-01-16T19:56:56.889Z,2.24
2023-01-16T19:59:24.997Z,2.23
2023-01-16T20:01:59.680Z,2.25
2023-01-16T20:04:36.121Z,2.26
2023-01-16T20:07:10.252Z,2.27
2023-01-16T20:09:45.312Z,2.31
2023-01-16T20:12:24.968Z,2.39
2023-01-16T20:14:55.453Z,2.46
2023-01-16T20:17:24.581Z,2.51
2023-01-16T20:19:56.136Z,2.57
2023-01-16T20:22:35.145Z,2.61
2023-01-16T20:25:11.043Z,2.65
2023-01-16T20:27:40.750Z,2.70
2023-01-16T20:30:34.757Z,2.74
2023-01-16T20:33:02.557Z,2.78
2023-01-16T20:35:30.698Z,2.83
2023-01-16T20:37:58.613Z,2.86
2023-01-16T20:40:26.319Z,2.89
2023-01-16T20:43:12.565Z,2.92
2023-01-16T20:45:51.212Z,2.91
2023-01-16T20:48:20.174Z,2.92
2023-01-16T20:50:49.653Z,2.95
2023-01-16T20:53:18.889Z,2.97
2023-01-16T20:55:48.711Z,3.00
2023-01-16T20:58:16.483Z,3.03
2023-01-16T21:00:44.348Z,3.07
2023-01-16T21:03:12.510Z,3.10
2023-01-16T21:05:40.731Z,3.16
2023-01-16T21:08:08.620Z,3.17
2023-01-16T21:10:36.320Z,3.13
2023-01-16T21:13:22.998Z,3.15
2023-01-16T21:16:14.401Z,3.12
2023-01-16T21:19:02.128Z,3.11
2023-01-16T21:21:49.910Z,3.09
2023-01-16T21:24:19.439Z,3.07
2023-01-16T21:26:48.592Z,3.07
2023-01-16T21:29:16.296Z,3.13
2023-01-16T21:31:44.084Z,3.19
2023-01-16T21:34:11.813Z,3.25
2023-01-16T21:36:42.240Z,3.28
2023-01-16T21:39:11.521Z,3.29
2023-01-16T21:41:57.807Z,3.27
2023-01-16T21:44:43.953Z,3.27
2023-01-16T21:47:12.701Z,3.29
2023-01-16T21:49:40.508Z,3.31
2023-01-16T21:52:09.665Z,3.33
2023-01-16T21:54:37.272Z,3.33
2023-01-16T21:57:04.926Z,3.34
2023-01-16T21:59:32.655Z,3.36
2023-01-16T22:02:00.369Z,3.36
2023-01-16T22:04:28.225Z,3.35
2023-01-16T22:06:55.887Z,3.33
2023-01-16T22:09:23.595Z,3.30
2023-01-16T22:12:09.643Z,3.31
2023-01-16T22:14:55.730Z,3.30
2023-01-16T22:17:42.363Z,3.30
2023-01-16T22:20:22.992Z,3.29
2023-01-16T22:22:55.202Z,3.33
2023-01-16T22:25:29.639Z,3.33
2023-01-16T22:28:06.951Z,3.25
2023-01-16T22:30:34.698Z,3.25
2023-01-16T22:33:02.358Z,3.30
2023-01-16T22:35:30.152Z,3.35
2023-01-16T22:37:59.919Z,3.37
2023-01-16T22:40:27.661Z,3.42
2023-01-16T22:43:15.302Z,3.44
2023-01-16T22:46:01.285Z,3.47
2023-01-16T22:48:29.015Z,3.46
2023-01-16T22:51:04.290Z,3.42
2023-01-16T22:53:31.974Z,3.38
2023-01-16T22:56:01.721Z,3.37
2023-01-16T22:58:30.008Z,3.36
2023-01-16T23:00:59.074Z,3.35
2023-01-16T23:03:26.824Z,3.32
2023-01-16T23:05:54.488Z,3.28
2023-01-16T23:08:22.178Z,3.28
2023-01-16T23:11:35.110Z,3.31
2023-01-16T23:14:08.090Z,3.34
2023-01-16T23:16:39.743Z,3.25
2023-01-16T23:19:12.470Z,3.24
2023-01-16T23:21:59.898Z,3.27
2023-01-16T23:24:32.161Z,3.32
2023-01-16T23:27:02.341Z,3.37
2023-01-16T23:29:31.563Z,3.40
2023-01-16T23:31:59.690Z,3.40
2023-01-16T23:34:29.645Z,3.41
2023-01-16T23:36:57.408Z,3.43
2023-01-16T23:39:25.498Z,3.44
2023-01-16T23:42:11.991Z,3.44
2023-01-16T23:44:39.706Z,3.45
2023-01-16T23:47:21.574Z,3.45
2023-01-16T23:49:52.907Z,3.42
2023-01-16T23:52:28.959Z,3.39
2023-01-16T23:54:56.716Z,3.38
2023-01-16T23:57:28.806Z,3.40
2023-01-16T23:59:56.481Z,3.40
